sensor_id;sensor_type;location;lat;lon;timestamp;pressure;altitude;pressure_sealevel;temperature;humidity
56038;BME280;41907;47.848;9.000;2022-08-19T00:00:08;95382.31;;;18.03;100.00
56038;BME280;41907;47.848;9.000;2022-08-19T00:02:35;95383.88;;;18.04;100.00
56038;BME280;41907;47.848;9.000;2022-08-19T00:05:01;95383.47;;;18.02;100.00
56038;BME280;41907;47.848;9.000;2022-08-19T00:07:26;95382.38;;;18.07;100.00
56038;BME280;41907;47.848;9.000;2022-08-19T00:09:52;95388.97;;;18.09;100.00
56038;BME280;41907;47.848;9.000;2022-08-19T00:12:17;95385.91;;;18.11;100.00
56038;BME280;41907;47.848;9.000;2022-08-19T00:14:42;95400.19;;;18.11;100.00
56038;BME280;41907;47.848;9.000;2022-08-19T00:17:08;95407.91;;;18.13;100.00
56038;BME280;41907;47.848;9.000;2022-08-19T00:19:35;95419.09;;;18.11;100.00
56038;BME280;41907;47.848;9.000;2022-08-19T00:22:01;95417.53;;;18.10;100.00
56038;BME280;41907;47.848;9.000;2022-08-19T00:24:28;95411.72;;;18.08;100.00
56038;BME280;41907;47.848;9.000;2022-08-19T00:26:54;95402.81;;;18.08;100.00
56038;BME280;41907;47.848;9.000;2022-08-19T00:29:21;95399.81;;;18.13;100.00
56038;BME280;41907;47.848;9.000;2022-08-19T00:31:47;95394.47;;;18.16;100.00
56038;BME280;41907;47.848;9.000;2022-08-19T00:34:14;95399.03;;;18.12;100.00
56038;BME280;41907;47.848;9.000;2022-08-19T00:36:40;95406.34;;;18.12;100.00
56038;BME280;41907;47.848;9.000;2022-08-19T00:39:07;95405.97;;;18.13;100.00
56038;BME280;41907;47.848;9.000;2022-08-19T00:41:33;95415.22;;;18.12;100.00
56038;BME280;41907;47.848;9.000;2022-08-19T00:44:07;95411.34;;;18.10;100.00
56038;BME280;41907;47.848;9.000;2022-08-19T00:46:34;95416.78;;;18.13;100.00
56038;BME280;41907;47.848;9.000;2022-08-19T00:49:05;95405.59;;;18.11;100.00
56038;BME280;41907;47.848;9.000;2022-08-19T00:51:32;95405.88;;;18.06;100.00
56038;BME280;41907;47.848;9.000;2022-08-19T00:53:58;95400.91;;;18.08;100.00
56038;BME280;41907;47.848;9.000;2022-08-19T00:56:24;95399.72;;;18.06;100.00
56038;BME280;41907;47.848;9.000;2022-08-19T00:58:52;95404.31;;;18.05;100.00
56038;BME280;41907;47.848;9.000;2022-08-19T01:01:17;95403.13;;;18.03;100.00
56038;BME280;41907;47.848;9.000;2022-08-19T01:03:42;95405.47;;;18.04;100.00
56038;BME280;41907;47.848;9.000;2022-08-19T01:06:08;95410.09;;;18.04;100.00
56038;BME280;41907;47.848;9.000;2022-08-19T01:08:33;95403.88;;;18.00;100.00
56038;BME280;41907;47.848;9.000;2022-08-19T01:10:59;95398.41;;;17.96;100.00
56038;BME280;41907;47.848;9.000;2022-08-19T01:13:29;95407.34;;;18.00;100.00
56038;BME280;41907;47.848;9.000;2022-08-19T01:15:58;95405.44;;;18.01;100.00
56038;BME280;41907;47.848;9.000;2022-08-19T01:18:26;95406.94;;;17.98;100.00
56038;BME280;41907;47.848;9.000;2022-08-19T01:20:54;95406.84;;;17.95;100.00
56038;BME280;41907;47.848;9.000;2022-08-19T01:23:21;95401.88;;;17.97;100.00
56038;BME280;41907;47.848;9.000;2022-08-19T01:25:51;95399.19;;;17.97;100.00
56038;BME280;41907;47.848;9.000;2022-08-19T01:28:25;95383.34;;;17.95;100.00
56038;BME280;41907;47.848;9.000;2022-08-19T01:30:52;95390.63;;;17.91;100.00
56038;BME280;41907;47.848;9.000;2022-08-19T01:33:19;95387.56;;;17.93;100.00
56038;BME280;41907;47.848;9.000;2022-08-19T01:35:45;95394.16;;;17.95;100.00
56038;BME280;41907;47.848;9.000;2022-08-19T01:38:21;95401.47;;;17.95;100.00
56038;BME280;41907;47.848;9.000;2022-08-19T01:40:47;95398.06;;;17.98;100.00
56038;BME280;41907;47.848;9.000;2022-08-19T01:43:12;95395.72;;;17.96;100.00
56038;BME280;41907;47.848;9.000;2022-08-19T01:45:38;95391.09;;;17.97;100.00
56038;BME280;41907;47.848;9.000;2022-08-19T01:48:08;95392.19;;;17.92;100.00
56038;BME280;41907;47.848;9.000;2022-08-19T01:50:34;95403.34;;;17.91;100.00
56038;BME280;41907;47.848;9.000;2022-08-19T01:53:02;95396.03;;;17.91;100.00
56038;BME280;41907;47.848;9.000;2022-08-19T01:55:28;95402.56;;;17.90;100.00
56038;BME280;41907;47.848;9.000;2022-08-19T01:57:56;95392.56;;;17.91;100.00
56038;BME280;41907;47.848;9.000;2022-08-19T02:00:24;95402.06;;;17.84;100.00
56038;BME280;41907;47.848;9.000;2022-08-19T02:02:50;95396.75;;;17.88;100.00
56038;BME280;41907;47.848;9.000;2022-08-19T02:05:16;95399.13;;;17.93;100.00
56038;BME280;41907;47.848;9.000;2022-08-19T02:07:43;95383.41;;;17.99;100.00
56038;BME280;41907;47.848;9.000;2022-08-19T02:10:12;95383.88;;;18.04;100.00
56038;BME280;41907;47.848;9.000;2022-08-19T02:12:39;95381.94;;;18.01;100.00
56038;BME280;41907;47.848;9.000;2022-08-19T02:15:05;95381.13;;;18.01;100.00
56038;BME280;41907;47.848;9.000;2022-08-19T02:17:31;95382.31;;;18.03;100.00
56038;BME280;41907;47.848;9.000;2022-08-19T02:19:57;95381.06;;;17.97;100.00
56038;BME280;41907;47.848;9.000;2022-08-19T02:22:23;95381.06;;;17.97;100.00
56038;BME280;41907;47.848;9.000;2022-08-19T02:24:49;95379.94;;;17.98;100.00
56038;BME280;41907;47.848;9.000;2022-08-19T02:27:15;95376.78;;;17.93;100.00
56038;BME280;41907;47.848;9.000;2022-08-19T02:29:40;95383.00;;;17.97;100.00
56038;BME280;41907;47.848;9.000;2022-08-19T02:32:06;95378.75;;;17.96;100.00
56038;BME280;41907;47.848;9.000;2022-08-19T02:34:31;95376.09;;;17.99;100.00
56038;BME280;41907;47.848;9.000;2022-08-19T02:36:57;95377.25;;;17.98;100.00
56038;BME280;41907;47.848;9.000;2022-08-19T02:39:22;95377.66;;;18.00;100.00
56038;BME280;41907;47.848;9.000;2022-08-19T02:41:47;95381.06;;;17.97;100.00
56038;BME280;41907;47.848;9.000;2022-08-19T02:44:14;95386.47;;;17.97;100.00
56038;BME280;41907;47.848;9.000;2022-08-19T02:46:40;95384.56;;;17.98;100.00
56038;BME280;41907;47.848;9.000;2022-08-19T02:49:06;95393.84;;;18.00;100.00
56038;BME280;41907;47.848;9.000;2022-08-19T02:51:36;95386.53;;;18.01;100.00
56038;BME280;41907;47.848;9.000;2022-08-19T02:54:03;95395.03;;;18.03;100.00
56038;BME280;41907;47.848;9.000;2022-08-19T02:56:29;95390.72;;;17.98;100.00
56038;BME280;41907;47.848;9.000;2022-08-19T02:58:57;95398.13;;;18.01;100.00
56038;BME280;41907;47.848;9.000;2022-08-19T03:01:31;95393.84;;;18.00;100.00
56038;BME280;41907;47.848;9.000;2022-08-19T03:04:00;95395.72;;;17.96;100.00
56038;BME280;41907;47.848;9.000;2022-08-19T03:06:26;95394.50;;;17.94;100.00
56038;BME280;41907;47.848;9.000;2022-08-19T03:08:52;95392.47;;;17.87;100.00
56038;BME280;41907;47.848;9.000;2022-08-19T03:11:27;95389.44;;;17.89;100.00
56038;BME280;41907;47.848;9.000;2022-08-19T03:13:53;95388.03;;;17.98;100.00
56038;BME280;41907;47.848;9.000;2022-08-19T03:16:20;95387.25;;;17.98;100.00
56038;BME280;41907;47.848;9.000;2022-08-19T03:18:46;95396.91;;;17.99;100.00
56038;BME280;41907;47.848;9.000;2022-08-19T03:21:32;95390.72;;;17.98;100.00
56038;BME280;41907;47.848;9.000;2022-08-19T03:24:04;95398.47;;;18.00;100.00
56038;BME280;41907;47.848;9.000;2022-08-19T03:26:30;95391.50;;;17.99;100.00
56038;BME280;41907;47.848;9.000;2022-08-19T03:28:57;95388.09;;;18.02;100.00
56038;BME280;41907;47.848;9.000;2022-08-19T03:31:26;95395.03;;;18.03;100.00
56038;BME280;41907;47.848;9.000;2022-08-19T03:33:52;95383.84;;;18.01;100.00
56038;BME280;41907;47.848;9.000;2022-08-19T03:36:24;95389.59;;;17.99;100.00
56038;BME280;41907;47.848;9.000;2022-08-19T03:39:00;95392.31;;;18.03;100.00
56038;BME280;41907;47.848;9.000;2022-08-19T03:41:31;95393.88;;;18.04;100.00
56038;BME280;41907;47.848;9.000;2022-08-19T03:43:57;95396.13;;;17.98;100.00
56038;BME280;41907;47.848;9.000;2022-08-19T03:46:28;95397.97;;;17.94;100.00
56038;BME280;41907;47.848;9.000;2022-08-19T03:48:57;95389.84;;;17.91;100.00
56038;BME280;41907;47.848;9.000;2022-08-19T03:51:25;95387.16;;;17.91;100.00
56038;BME280;41907;47.848;9.000;2022-08-19T03:53:53;95393.72;;;17.93;100.00
56038;BME280;41907;47.848;9.000;2022-08-19T03:56:19;95389.09;;;17.94;100.00
56038;BME280;41907;47.848;9.000;2022-08-19T03:58:45;95385.63;;;17.93;100.00
56038;BME280;41907;47.848;9.000;2022-08-19T04:01:14;95381.34;;;17.89;100.00
56038;BME280;41907;47.848;9.000;2022-08-19T04:03:40;95373.59;;;17.87;100.00
56038;BME280;41907;47.848;9.000;2022-08-19T04:06:18;95371.25;;;17.85;100.00
56038;BME280;41907;47.848;9.000;2022-08-19T04:08:47;95376.22;;;17.83;100.00
56038;BME280;41907;47.848;9.000;2022-08-19T04:11:15;95368.47;;;17.78;100.00
56038;BME280;41907;47.848;9.000;2022-08-19T04:13:41;95373.00;;;17.74;100.00
56038;BME280;41907;47.848;9.000;2022-08-19T04:16:09;95378.41;;;17.74;100.00
56038;BME280;41907;47.848;9.000;2022-08-19T04:18:36;95374.63;;;17.79;100.00
56038;BME280;41907;47.848;9.000;2022-08-19T04:21:02;95374.22;;;17.77;100.00
56038;BME280;41907;47.848;9.000;2022-08-19T04:23:27;95364.28;;;17.81;100.00
56038;BME280;41907;47.848;9.000;2022-08-19T04:25:56;95373.91;;;17.82;100.00
56038;BME280;41907;47.848;9.000;2022-08-19T04:28:22;95363.13;;;17.82;100.00
56038;BME280;41907;47.848;9.000;2022-08-19T04:30:50;95370.81;;;17.80;100.00
56038;BME280;41907;47.848;9.000;2022-08-19T04:33:19;95365.81;;;17.82;100.00
56038;BME280;41907;47.848;9.000;2022-08-19T04:35:46;95372.78;;;17.83;100.00
56038;BME280;41907;47.848;9.000;2022-08-19T04:38:12;95376.63;;;17.82;100.00
56038;BME280;41907;47.848;9.000;2022-08-19T04:40:47;95377.41;;;17.82;100.00
56038;BME280;41907;47.848;9.000;2022-08-19T04:43:32;95378.56;;;17.85;100.00
56038;BME280;41907;47.848;9.000;2022-08-19T04:46:04;95386.66;;;17.85;100.00
56038;BME280;41907;47.848;9.000;2022-08-19T04:48:30;95390.91;;;17.86;100.00
56038;BME280;41907;47.848;9.000;2022-08-19T04:50:57;95397.88;;;17.87;100.00
56038;BME280;41907;47.848;9.000;2022-08-19T04:53:30;95406.75;;;17.88;100.00
56038;BME280;41907;47.848;9.000;2022-08-19T04:55:57;95410.16;;;17.84;100.00
56038;BME280;41907;47.848;9.000;2022-08-19T04:58:25;95417.63;;;17.91;100.00
56038;BME280;41907;47.848;9.000;2022-08-19T05:00:51;95427.19;;;17.89;100.00
56038;BME280;41907;47.848;9.000;2022-08-19T05:03:16;95414.50;;;17.89;100.00
56038;BME280;41907;47.848;9.000;2022-08-19T05:05:43;95415.69;;;17.92;100.00
56038;BME280;41907;47.848;9.000;2022-08-19T05:08:10;95416.88;;;17.94;100.00
56038;BME280;41907;47.848;9.000;2022-08-19T05:10:37;95418.41;;;17.92;100.00
56038;BME280;41907;47.848;9.000;2022-08-19T05:13:03;95421.44;;;17.90;100.00
56038;BME280;41907;47.848;9.000;2022-08-19T05:15:28;95417.63;;;17.91;100.00
56038;BME280;41907;47.848;9.000;2022-08-19T05:17:54;95425.34;;;17.93;100.00
56038;BME280;41907;47.848;9.000;2022-08-19T05:20:38;95427.28;;;17.92;100.00
56038;BME280;41907;47.848;9.000;2022-08-19T05:23:22;95432.69;;;17.96;100.00
56038;BME280;41907;47.848;9.000;2022-08-19T05:25:48;95435.75;;;17.94;100.00
56038;BME280;41907;47.848;9.000;2022-08-19T05:28:14;95439.25;;;17.95;100.00
56038;BME280;41907;47.848;9.000;2022-08-19T05:30:40;95428.81;;;17.93;100.00
56038;BME280;41907;47.848;9.000;2022-08-19T05:33:06;95431.88;;;17.92;100.00
56038;BME280;41907;47.848;9.000;2022-08-19T05:35:36;95429.97;;;17.92;100.00
56038;BME280;41907;47.848;9.000;2022-08-19T05:38:01;95438.84;;;17.93;100.00
56038;BME280;41907;47.848;9.000;2022-08-19T05:40:26;95443.03;;;17.90;100.00
56038;BME280;41907;47.848;9.000;2022-08-19T05:42:52;95442.28;;;17.93;100.00
56038;BME280;41907;47.848;9.000;2022-08-19T05:45:18;95436.91;;;17.93;100.00
56038;BME280;41907;47.848;9.000;2022-08-19T05:47:43;95442.28;;;17.93;100.00
56038;BME280;41907;47.848;9.000;2022-08-19T05:50:10;95447.34;;;17.95;100.00
56038;BME280;41907;47.848;9.000;2022-08-19T05:52:37;95450.44;;;17.97;100.00
56038;BME280;41907;47.848;9.000;2022-08-19T05:55:03;95444.63;;;17.95;100.00
56038;BME280;41907;47.848;9.000;2022-08-19T05:57:30;95438.88;;;17.96;100.00
56038;BME280;41907;47.848;9.000;2022-08-19T05:59:56;95438.47;;;17.94;100.00
56038;BME280;41907;47.848;9.000;2022-08-19T06:02:22;95433.91;;;17.98;100.00
56038;BME280;41907;47.848;9.000;2022-08-19T06:04:47;95441.22;;;17.98;100.00
56038;BME280;41907;47.848;9.000;2022-08-19T06:07:13;95439.31;;;17.98;100.00
56038;BME280;41907;47.848;9.000;2022-08-19T06:09:39;95442.44;;;18.00;100.00
56038;BME280;41907;47.848;9.000;2022-08-19T06:12:05;95439.72;;;18.00;100.00
56038;BME280;41907;47.848;9.000;2022-08-19T06:14:33;95431.63;;;18.00;100.00
56038;BME280;41907;47.848;9.000;2022-08-19T06:17:00;95430.50;;;18.01;100.00
56038;BME280;41907;47.848;9.000;2022-08-19T06:19:27;95438.22;;;18.03;100.00
56038;BME280;41907;47.848;9.000;2022-08-19T06:21:56;95440.16;;;18.02;100.00
56038;BME280;41907;47.848;9.000;2022-08-19T06:24:25;95433.59;;;18.03;100.00
56038;BME280;41907;47.848;9.000;2022-08-19T06:26:52;95439.41;;;18.05;100.00
56038;BME280;41907;47.848;9.000;2022-08-19T06:29:22;95436.72;;;18.05;100.00
56038;BME280;41907;47.848;9.000;2022-08-19T06:31:52;95441.41;;;18.08;100.00
56038;BME280;41907;47.848;9.000;2022-08-19T06:34:19;95445.22;;;18.07;100.00
56038;BME280;41907;47.848;9.000;2022-08-19T06:36:47;95452.91;;;18.05;100.00
56038;BME280;41907;47.848;9.000;2022-08-19T06:39:24;95452.13;;;18.05;100.00
56038;BME280;41907;47.848;9.000;2022-08-19T06:41:53;95456.38;;;18.06;100.00
56038;BME280;41907;47.848;9.000;2022-08-19T06:44:21;95456.03;;;18.07;100.00
56038;BME280;41907;47.848;9.000;2022-08-19T06:46:46;95457.59;;;18.08;100.00
56038;BME280;41907;47.848;9.000;2022-08-19T06:49:12;95460.72;;;18.10;100.00
56038;BME280;41907;47.848;9.000;2022-08-19T06:51:43;95458.78;;;18.11;100.00
56038;BME280;41907;47.848;9.000;2022-08-19T06:54:09;95448.38;;;18.13;100.00
56038;BME280;41907;47.848;9.000;2022-08-19T06:56:35;95450.78;;;18.18;100.00
56038;BME280;41907;47.848;9.000;2022-08-19T06:59:07;95453.53;;;18.21;100.00
56038;BME280;41907;47.848;9.000;2022-08-19T07:01:38;95451.69;;;18.26;100.00
56038;BME280;41907;47.848;9.000;2022-08-19T07:04:08;95445.50;;;18.25;100.00
56038;BME280;41907;47.848;9.000;2022-08-19T07:06:35;95447.84;;;18.27;100.00
56038;BME280;41907;47.848;9.000;2022-08-19T07:09:01;95449.41;;;18.28;100.00
56038;BME280;41907;47.848;9.000;2022-08-19T07:11:27;95452.13;;;18.31;100.00
56038;BME280;41907;47.848;9.000;2022-08-19T07:13:52;95453.34;;;18.34;100.00
56038;BME280;41907;47.848;9.000;2022-08-19T07:16:19;95451.06;;;18.36;100.00
56038;BME280;41907;47.848;9.000;2022-08-19T07:18:46;95463.00;;;18.35;100.00
56038;BME280;41907;47.848;9.000;2022-08-19T07:21:21;95450.63;;;18.34;100.00
56038;BME280;41907;47.848;9.000;2022-08-19T07:23:48;95451.84;;;18.36;100.00
56038;BME280;41907;47.848;9.000;2022-08-19T07:26:17;95460.72;;;18.37;100.00
56038;BME280;41907;47.848;9.000;2022-08-19T07:28:44;95461.84;;;18.36;100.00
56038;BME280;41907;47.848;9.000;2022-08-19T07:31:12;95460.28;;;18.35;100.00
56038;BME280;41907;47.848;9.000;2022-08-19T07:33:39;95468.75;;;18.33;100.00
56038;BME280;41907;47.848;9.000;2022-08-19T07:36:07;95477.28;;;18.35;100.00
56038;BME280;41907;47.848;9.000;2022-08-19T07:38:35;95469.19;;;18.35;100.00
56038;BME280;41907;47.848;9.000;2022-08-19T07:41:00;95478.34;;;18.31;100.00
56038;BME280;41907;47.848;9.000;2022-08-19T07:43:27;95466.41;;;18.32;100.00
56038;BME280;41907;47.848;9.000;2022-08-19T07:45:53;95471.09;;;18.35;100.00
56038;BME280;41907;47.848;9.000;2022-08-19T07:48:23;95469.19;;;18.35;100.00
56038;BME280;41907;47.848;9.000;2022-08-19T07:50:54;95468.47;;;18.38;100.00
56038;BME280;41907;47.848;9.000;2022-08-19T07:53:21;95462.69;;;18.40;100.00
56038;BME280;41907;47.848;9.000;2022-08-19T07:55:47;95474.75;;;18.46;100.00
56038;BME280;41907;47.848;9.000;2022-08-19T07:58:15;95465.13;;;18.48;100.00
56038;BME280;41907;47.848;9.000;2022-08-19T08:00:42;95466.72;;;18.53;100.00
56038;BME280;41907;47.848;9.000;2022-08-19T08:03:07;95461.69;;;18.51;100.00
56038;BME280;41907;47.848;9.000;2022-08-19T08:05:34;95476.03;;;18.55;100.00
56038;BME280;41907;47.848;9.000;2022-08-19T08:08:18;95476.03;;;18.55;100.00
56038;BME280;41907;47.848;9.000;2022-08-19T08:11:02;95481.44;;;18.55;100.00
56038;BME280;41907;47.848;9.000;2022-08-19T08:13:28;95476.81;;;18.56;100.00
56038;BME280;41907;47.848;9.000;2022-08-19T08:15:53;95486.06;;;18.55;100.00
56038;BME280;41907;47.848;9.000;2022-08-19T08:18:19;95478.69;;;18.52;100.00
56038;BME280;41907;47.848;9.000;2022-08-19T08:20:45;95489.13;;;18.53;100.00
56038;BME280;41907;47.848;9.000;2022-08-19T08:23:10;95491.56;;;18.58;100.00
56038;BME280;41907;47.848;9.000;2022-08-19T08:25:50;95502.25;;;18.55;100.00
56038;BME280;41907;47.848;9.000;2022-08-19T08:28:17;95498.31;;;18.49;100.00
56038;BME280;41907;47.848;9.000;2022-08-19T08:30:42;95507.22;;;18.49;100.00
56038;BME280;41907;47.848;9.000;2022-08-19T08:33:09;95503.31;;;18.47;100.00
56038;BME280;41907;47.848;9.000;2022-08-19T08:35:35;95504.88;;;18.48;100.00
56038;BME280;41907;47.848;9.000;2022-08-19T08:38:01;95508.72;;;18.47;100.00
56038;BME280;41907;47.848;9.000;2022-08-19T08:40:44;95511.75;;;18.45;100.00
56038;BME280;41907;47.848;9.000;2022-08-19T08:43:38;95516.44;;;18.48;100.00
56038;BME280;41907;47.848;9.000;2022-08-19T08:46:22;95516.81;;;18.47;100.00
56038;BME280;41907;47.848;9.000;2022-08-19T08:49:49;95522.22;;;18.47;100.00
56038;BME280;41907;47.848;9.000;2022-08-19T08:51:51;95527.50;;;18.40;100.00
56038;BME280;41907;47.848;9.000;2022-08-19T08:54:20;95527.91;;;18.42;100.00
56038;BME280;41907;47.848;9.000;2022-08-19T08:56:51;95525.25;;;18.45;100.00
56038;BME280;41907;47.848;9.000;2022-08-19T09:01:46;95528.31;;;18.44;100.00
56038;BME280;41907;47.848;9.000;2022-08-19T09:04:12;95537.28;;;18.48;100.00
56038;BME280;41907;47.848;9.000;2022-08-19T09:06:49;95528.38;;;18.47;100.00
56038;BME280;41907;47.848;9.000;2022-08-19T09:09:40;95535.28;;;18.45;100.00
56038;BME280;41907;47.848;9.000;2022-08-19T09:15:08;95535.22;;;18.41;100.00
56038;BME280;41907;47.848;9.000;2022-08-19T09:17:34;95540.22;;;18.39;100.00
56038;BME280;41907;47.848;9.000;2022-08-19T09:22:34;95547.47;;;18.35;100.00
56038;BME280;41907;47.848;9.000;2022-08-19T09:24:59;95539.31;;;18.32;100.00
56038;BME280;41907;47.848;9.000;2022-08-19T09:27:26;95546.63;;;18.31;100.00
56038;BME280;41907;47.848;9.000;2022-08-19T09:29:52;95548.16;;;18.29;100.00
56038;BME280;41907;47.848;9.000;2022-08-19T09:32:19;95550.50;;;18.30;100.00
56038;BME280;41907;47.848;9.000;2022-08-19T09:34:44;95547.41;;;18.32;100.00
56038;BME280;41907;47.848;9.000;2022-08-19T09:37:10;95550.06;;;18.28;100.00
56038;BME280;41907;47.848;9.000;2022-08-19T09:39:37;95552.00;;;18.28;100.00
56038;BME280;41907;47.848;9.000;2022-08-19T09:42:02;95555.47;;;18.28;100.00
56038;BME280;41907;47.848;9.000;2022-08-19T09:44:29;95556.88;;;18.22;100.00
56038;BME280;41907;47.848;9.000;2022-08-19T09:46:54;95557.97;;;18.17;100.00
56038;BME280;41907;47.848;9.000;2022-08-19T09:49:20;95569.59;;;18.21;100.00
56038;BME280;41907;47.848;9.000;2022-08-19T09:51:52;95568.78;;;18.17;100.00
56038;BME280;41907;47.848;9.000;2022-08-19T09:54:21;95568.84;;;18.21;100.00
56038;BME280;41907;47.848;9.000;2022-08-19T09:56:46;95583.88;;;18.22;100.00
56038;BME280;41907;47.848;9.000;2022-08-19T09:59:12;95578.13;;;18.23;100.00
56038;BME280;41907;47.848;9.000;2022-08-19T10:01:37;95578.09;;;18.20;100.00
56038;BME280;41907;47.848;9.000;2022-08-19T10:04:03;95578.47;;;18.22;100.00
56038;BME280;41907;47.848;9.000;2022-08-19T10:06:34;95573.03;;;18.18;100.00
56038;BME280;41907;47.848;9.000;2022-08-19T10:09:01;95572.69;;;18.20;100.00
56038;BME280;41907;47.848;9.000;2022-08-19T10:11:29;95578.44;;;18.18;100.00
56038;BME280;41907;47.848;9.000;2022-08-19T10:13:54;95586.19;;;18.20;100.00
56038;BME280;41907;47.848;9.000;2022-08-19T10:16:21;95580.41;;;18.21;100.00
56038;BME280;41907;47.848;9.000;2022-08-19T10:18:48;95576.94;;;18.21;100.00
56038;BME280;41907;47.848;9.000;2022-08-19T10:21:17;95581.97;;;18.22;100.00
56038;BME280;41907;47.848;9.000;2022-08-19T10:23:46;95591.63;;;18.23;100.00
56038;BME280;41907;47.848;9.000;2022-08-19T10:26:15;95585.88;;;18.25;100.00
56038;BME280;41907;47.848;9.000;2022-08-19T10:28:40;95584.81;;;18.30;100.00
56038;BME280;41907;47.848;9.000;2022-08-19T10:31:08;95576.72;;;18.30;100.00
56038;BME280;41907;47.848;9.000;2022-08-19T10:33:35;95582.13;;;18.30;100.00
56038;BME280;41907;47.848;9.000;2022-08-19T10:36:06;95585.16;;;18.28;100.00
56038;BME280;41907;47.848;9.000;2022-08-19T10:38:33;95583.19;;;18.25;100.00
56038;BME280;41907;47.848;9.000;2022-08-19T10:41:07;95591.28;;;18.25;100.00
56038;BME280;41907;47.848;9.000;2022-08-19T10:43:33;95591.94;;;18.18;100.00
56038;BME280;41907;47.848;9.000;2022-08-19T10:46:02;95605.44;;;18.18;100.00
56038;BME280;41907;47.848;9.000;2022-08-19T10:48:30;95599.63;;;18.16;100.00
56038;BME280;41907;47.848;9.000;2022-08-19T10:50:57;95594.13;;;18.13;100.00
56038;BME280;41907;47.848;9.000;2022-08-19T10:53:41;95606.06;;;18.12;100.00
56038;BME280;41907;47.848;9.000;2022-08-19T10:56:06;95607.22;;;18.11;100.00
56038;BME280;41907;47.848;9.000;2022-08-19T10:58:50;95603.13;;;17.98;100.00
56038;BME280;41907;47.848;9.000;2022-08-19T11:01:15;95603.19;;;18.01;100.00
56038;BME280;41907;47.848;9.000;2022-08-19T11:03:41;95601.63;;;18.00;100.00
56038;BME280;41907;47.848;9.000;2022-08-19T11:06:08;95607.03;;;18.00;100.00
56038;BME280;41907;47.848;9.000;2022-08-19T11:08:35;95604.78;;;18.02;100.00
56038;BME280;41907;47.848;9.000;2022-08-19T11:11:03;95602.41;;;18.01;100.00
56038;BME280;41907;47.848;9.000;2022-08-19T11:13:34;95609.31;;;17.98;100.00
56038;BME280;41907;47.848;9.000;2022-08-19T11:16:05;95605.03;;;17.97;100.00
56038;BME280;41907;47.848;9.000;2022-08-19T11:18:37;95613.50;;;17.96;100.00
56038;BME280;41907;47.848;9.000;2022-08-19T11:21:12;95612.44;;;18.00;100.00
56038;BME280;41907;47.848;9.000;2022-08-19T11:23:37;95616.97;;;17.96;100.00
56038;BME280;41907;47.848;9.000;2022-08-19T11:26:03;95616.25;;;17.99;100.00
56038;BME280;41907;47.848;9.000;2022-08-19T11:28:28;95617.03;;;18.00;100.00
56038;BME280;41907;47.848;9.000;2022-08-19T11:30:54;95610.56;;;18.04;100.00
56038;BME280;41907;47.848;9.000;2022-08-19T11:33:19;95616.81;;;18.08;100.00
56038;BME280;41907;47.848;9.000;2022-08-19T11:35:44;95621.88;;;18.10;100.00
56038;BME280;41907;47.848;9.000;2022-08-19T11:38:10;95624.91;;;18.08;100.00
56038;BME280;41907;47.848;9.000;2022-08-19T11:40:36;95628.09;;;18.14;100.00
56038;BME280;41907;47.848;9.000;2022-08-19T11:43:02;95624.63;;;18.13;100.00
56038;BME280;41907;47.848;9.000;2022-08-19T11:45:28;95626.53;;;18.13;100.00
56038;BME280;41907;47.848;9.000;2022-08-19T11:47:54;95629.63;;;18.11;100.00
56038;BME280;41907;47.848;9.000;2022-08-19T11:50:20;95622.91;;;18.05;100.00
56038;BME280;41907;47.848;9.000;2022-08-19T11:52:47;95626.84;;;18.08;100.00
56038;BME280;41907;47.848;9.000;2022-08-19T11:55:14;95624.97;;;18.12;100.00
56038;BME280;41907;47.848;9.000;2022-08-19T11:57:40;95626.97;;;18.15;100.00
56038;BME280;41907;47.848;9.000;2022-08-19T12:00:07;95626.59;;;18.16;100.00
56038;BME280;41907;47.848;9.000;2022-08-19T12:02:33;95620.97;;;18.25;100.00
56038;BME280;41907;47.848;9.000;2022-08-19T12:04:59;95627.59;;;18.28;100.00
56038;BME280;41907;47.848;9.000;2022-08-19T12:07:28;95627.94;;;18.26;100.00
56038;BME280;41907;47.848;9.000;2022-08-19T12:09:56;95625.00;;;18.35;100.00
56038;BME280;41907;47.848;9.000;2022-08-19T12:12:21;95624.94;;;18.31;100.00
56038;BME280;41907;47.848;9.000;2022-08-19T12:14:48;95632.75;;;18.36;100.00
56038;BME280;41907;47.848;9.000;2022-08-19T12:17:15;95633.34;;;18.49;100.00
56038;BME280;41907;47.848;9.000;2022-08-19T12:19:41;95626.78;;;18.50;100.00
56038;BME280;41907;47.848;9.000;2022-08-19T12:22:06;95627.28;;;18.55;100.00
56038;BME280;41907;47.848;9.000;2022-08-19T12:24:32;95629.22;;;18.55;100.00
56038;BME280;41907;47.848;9.000;2022-08-19T12:26:58;95629.13;;;18.51;100.00
56038;BME280;41907;47.848;9.000;2022-08-19T12:29:27;95635.09;;;18.61;100.00
56038;BME280;41907;47.848;9.000;2022-08-19T12:31:55;95622.88;;;18.67;100.00
56038;BME280;41907;47.848;9.000;2022-08-19T12:34:27;95633.38;;;18.72;100.00
56038;BME280;41907;47.848;9.000;2022-08-19T12:36:58;95629.09;;;18.71;100.00
56038;BME280;41907;47.848;9.000;2022-08-19T12:39:24;95629.09;;;18.71;100.00
56038;BME280;41907;47.848;9.000;2022-08-19T12:41:50;95629.88;;;18.71;100.00
56038;BME280;41907;47.848;9.000;2022-08-19T12:44:16;95639.25;;;18.77;100.00
56038;BME280;41907;47.848;9.000;2022-08-19T12:46:42;95633.53;;;18.82;100.00
56038;BME280;41907;47.848;9.000;2022-08-19T12:49:07;95638.59;;;18.84;100.00
56038;BME280;41907;47.848;9.000;2022-08-19T12:51:32;95636.16;;;18.79;100.00
56038;BME280;41907;47.848;9.000;2022-08-19T12:53:59;95640.16;;;18.85;100.00
56038;BME280;41907;47.848;9.000;2022-08-19T12:56:24;95639.03;;;18.89;100.00
56038;BME280;41907;47.848;9.000;2022-08-19T12:58:50;95641.75;;;18.89;100.00
56038;BME280;41907;47.848;9.000;2022-08-19T13:01:16;95643.72;;;18.92;100.00